createdAt,value
2022-11-29T00:00:06.072Z,6.69
2022-11-29T00:00:16.077Z,6.68
2022-11-29T00:00:26.038Z,6.69
2022-11-29T00:00:35.981Z,6.68
2022-11-29T00:00:45.959Z,6.68
2022-11-29T00:00:55.998Z,6.71
2022-11-29T00:01:06.046Z,6.68
2022-11-29T00:01:16.015Z,6.65
2022-11-29T00:01:26.024Z,6.65
2022-11-29T00:01:35.987Z,6.65
2022-11-29T00:01:46.042Z,6.65
2022-11-29T00:01:56.141Z,6.64
2022-11-29T00:02:06.186Z,6.65
2022-11-29T00:02:16.159Z,6.63
2022-11-29T00:02:26.115Z,6.64
2022-11-29T00:02:36.124Z,6.64
2022-11-29T00:02:46.137Z,6.64
2022-11-29T00:02:56.251Z,6.64
2022-11-29T00:03:06.080Z,6.64
2022-11-29T00:03:16.052Z,6.64
2022-11-29T00:03:26.061Z,6.63
2022-11-29T00:03:36.086Z,6.63
2022-11-29T00:03:46.079Z,6.63
2022-11-29T00:03:56.021Z,6.61
2022-11-29T00:04:06.074Z,6.63
2022-11-29T00:04:16.049Z,6.64
2022-11-29T00:04:26.056Z,6.64
2022-11-29T00:04:36.024Z,6.64
2022-11-29T00:04:46.160Z,6.65
2022-11-29T00:04:56.007Z,6.64
2022-11-29T00:05:06.072Z,6.64
2022-11-29T00:05:16.031Z,6.68
2022-11-29T00:05:26.048Z,6.65
2022-11-29T00:05:36.051Z,6.65
2022-11-29T00:05:46.046Z,6.65
2022-11-29T00:05:56.037Z,6.68
2022-11-29T00:06:06.005Z,6.65
2022-11-29T00:06:15.977Z,6.65
2022-11-29T00:06:26.059Z,6.68
2022-11-29T00:06:35.977Z,6.68
2022-11-29T00:06:46.005Z,6.68
2022-11-29T00:06:55.957Z,6.68
2022-11-29T00:07:05.949Z,6.69
2022-11-29T00:07:16.019Z,6.68
2022-11-29T00:07:26.028Z,6.68
2022-11-29T00:07:36.090Z,6.65
2022-11-29T00:07:46.066Z,6.68
2022-11-29T00:07:56.093Z,6.65
2022-11-29T00:08:06.014Z,6.68
2022-11-29T00:08:16.007Z,6.65
2022-11-29T00:08:25.971Z,6.65
2022-11-29T00:08:36.081Z,6.68
2022-11-29T00:08:46.015Z,6.65
2022-11-29T00:08:56.039Z,6.65
2022-11-29T00:09:06.056Z,6.65
2022-11-29T00:09:16.052Z,6.68
2022-11-29T00:09:26.077Z,6.68
2022-11-29T00:09:36.036Z,6.65
2022-11-29T00:09:46.008Z,6.65
2022-11-29T00:09:56.102Z,6.64
2022-11-29T00:10:06.029Z,6.65
2022-11-29T00:10:16.083Z,6.68
2022-11-29T00:10:26.078Z,6.65
2022-11-29T00:10:35.998Z,6.65
2022-11-29T00:10:46.085Z,6.65
2022-11-29T00:10:56.005Z,6.65
2022-11-29T00:11:06.035Z,6.65
2022-11-29T00:11:15.975Z,6.68
2022-11-29T00:11:26.066Z,6.68
2022-11-29T00:11:36.051Z,6.65
2022-11-29T00:11:45.958Z,6.64
2022-11-29T00:11:56.061Z,6.65
2022-11-29T00:12:06.064Z,6.65
2022-11-29T00:12:15.992Z,6.65
2022-11-29T00:12:25.994Z,6.63
2022-11-29T00:12:36.055Z,6.64
2022-11-29T00:12:45.994Z,6.63
2022-11-29T00:12:56.072Z,6.64
2022-11-29T00:13:05.993Z,6.64
2022-11-29T00:13:16.075Z,6.64
2022-11-29T00:13:26.063Z,6.64
2022-11-29T00:13:36.063Z,6.63
2022-11-29T00:13:45.998Z,6.63
2022-11-29T00:13:56.000Z,6.63
2022-11-29T00:14:05.967Z,6.61
2022-11-29T00:14:16.056Z,6.63
2022-11-29T00:14:25.985Z,6.63
2022-11-29T00:14:35.952Z,6.61
2022-11-29T00:14:46.513Z,6.63
2022-11-29T00:14:55.990Z,6.63
2022-11-29T00:15:06.033Z,6.61
2022-11-29T00:15:15.968Z,6.63
2022-11-29T00:15:26.075Z,6.63
2022-11-29T00:15:35.960Z,6.61
2022-11-29T00:15:46.025Z,6.63
2022-11-29T00:15:56.044Z,6.63
2022-11-29T00:16:06.008Z,6.63
2022-11-29T00:16:15.977Z,6.63
2022-11-29T00:16:26.117Z,6.61
2022-11-29T00:16:36.105Z,6.61
2022-11-29T00:16:46.121Z,6.63
2022-11-29T00:16:56.018Z,6.63
2022-11-29T00:17:06.015Z,6.65
2022-11-29T00:17:16.084Z,6.64
2022-11-29T00:17:25.988Z,6.63
2022-11-29T00:17:36.018Z,6.64
2022-11-29T00:17:46.059Z,6.64
2022-11-29T00:17:56.021Z,6.64
2022-11-29T00:18:06.032Z,6.65
2022-11-29T00:18:16.046Z,6.68
2022-11-29T00:18:26.017Z,6.68
2022-11-29T00:18:36.008Z,6.69
2022-11-29T00:18:46.027Z,6.68
2022-11-29T00:18:56.030Z,6.69
2022-11-29T00:19:05.977Z,6.69
2022-11-29T00:19:16.044Z,6.69
2022-11-29T00:19:26.046Z,6.69
2022-11-29T00:19:36.085Z,6.69
2022-11-29T00:19:45.955Z,6.68
2022-11-29T00:19:56.002Z,6.68
2022-11-29T00:20:05.973Z,6.69
2022-11-29T00:20:16.026Z,6.68
2022-11-29T00:20:25.958Z,6.69
2022-11-29T00:20:35.955Z,6.68
2022-11-29T00:20:45.998Z,6.68
2022-11-29T00:20:55.990Z,6.68
2022-11-29T00:21:05.955Z,6.68
2022-11-29T00:21:16.042Z,6.68
2022-11-29T00:21:26.044Z,6.68
2022-11-29T00:21:36.011Z,6.68
2022-11-29T00:21:46.026Z,6.69
2022-11-29T00:21:55.996Z,6.69
2022-11-29T00:22:06.047Z,6.71
2022-11-29T00:22:16.037Z,6.71
2022-11-29T00:22:25.990Z,6.71
2022-11-29T00:22:36.070Z,6.71
2022-11-29T00:22:46.042Z,6.71
2022-11-29T00:22:56.036Z,6.71
2022-11-29T00:23:05.981Z,6.71
2022-11-29T00:23:16.078Z,6.71
2022-11-29T00:23:26.073Z,6.71
2022-11-29T00:23:36.096Z,6.69
2022-11-29T00:23:45.961Z,6.71
2022-11-29T00:23:55.996Z,6.69
2022-11-29T00:24:06.043Z,6.69
2022-11-29T00:24:16.038Z,6.69
2022-11-29T00:24:26.008Z,6.69
2022-11-29T00:24:36.041Z,6.69
2022-11-29T00:24:46.347Z,6.69
2022-11-29T00:24:55.950Z,6.69
2022-11-29T00:25:05.975Z,6.69
2022-11-29T00:25:15.986Z,6.68
2022-11-29T00:25:26.079Z,6.69
2022-11-29T00:25:36.001Z,6.68
2022-11-29T00:25:45.955Z,6.68
2022-11-29T00:25:56.068Z,6.68
2022-11-29T00:26:05.996Z,6.65
2022-11-29T00:26:15.988Z,6.65
2022-11-29T00:26:25.955Z,6.64
2022-11-29T00:26:36.027Z,6.64
2022-11-29T00:26:46.002Z,6.64
2022-11-29T00:26:55.997Z,6.64
2022-11-29T00:27:06.036Z,6.64
2022-11-29T00:27:15.973Z,6.64
2022-11-29T00:27:25.969Z,6.61
2022-11-29T00:27:36.057Z,6.63
2022-11-29T00:27:46.081Z,6.63
2022-11-29T00:27:56.059Z,6.61
2022-11-29T00:28:06.026Z,6.61
2022-11-29T00:28:16.019Z,6.61
2022-11-29T00:28:25.950Z,6.61
2022-11-29T00:28:35.994Z,6.60
2022-11-29T00:28:46.036Z,6.61
2022-11-29T00:28:55.979Z,6.61
2022-11-29T00:29:06.067Z,6.61
2022-11-29T00:29:16.071Z,6.60
2022-11-29T00:29:26.011Z,6.61
2022-11-29T00:29:36.050Z,6.64
2022-11-29T00:29:46.025Z,6.61
2022-11-29T00:29:56.072Z,6.60
2022-11-29T00:30:06.005Z,6.58
2022-11-29T00:30:16.085Z,6.58
2022-11-29T00:30:26.133Z,6.58
2022-11-29T00:30:36.105Z,6.58
2022-11-29T00:30:46.116Z,6.61
2022-11-29T00:30:56.059Z,6.60
2022-11-29T00:31:06.095Z,6.60
2022-11-29T00:31:16.097Z,6.60
2022-11-29T00:31:25.977Z,6.60
2022-11-29T00:31:36.015Z,6.60
2022-11-29T00:31:46.056Z,6.60
2022-11-29T00:31:55.992Z,6.60
2022-11-29T00:32:06.036Z,6.60
2022-11-29T00:32:16.031Z,6.58
2022-11-29T00:32:26.008Z,6.60
2022-11-29T00:32:36.018Z,6.60
2022-11-29T00:32:46.065Z,6.60
2022-11-29T00:32:56.060Z,6.60
2022-11-29T00:33:06.065Z,6.60
2022-11-29T00:33:16.063Z,6.58
2022-11-29T00:33:26.083Z,6.57
2022-11-29T00:33:35.958Z,6.60
2022-11-29T00:33:46.032Z,6.58
2022-11-29T00:33:55.952Z,6.58
2022-11-29T00:34:05.975Z,6.58
2022-11-29T00:34:15.956Z,6.60
2022-11-29T00:34:25.953Z,6.60
2022-11-29T00:34:36.495Z,6.60
2022-11-29T00:34:46.274Z,6.60
2022-11-29T00:34:59.365Z,6.54
2022-11-29T00:35:09.718Z,6.60
2022-11-29T00:35:16.045Z,6.57
2022-11-29T00:35:26.064Z,6.60
2022-11-29T00:35:36.083Z,6.61
2022-11-29T00:35:45.970Z,6.60
2022-11-29T00:35:56.069Z,6.60
2022-11-29T00:36:06.073Z,6.61
2022-11-29T00:36:15.979Z,6.60
2022-11-29T00:36:26.045Z,6.60
2022-11-29T00:36:36.017Z,6.60
2022-11-29T00:36:46.029Z,6.60
2022-11-29T00:36:55.966Z,6.60
2022-11-29T00:37:06.083Z,6.60
2022-11-29T00:37:15.955Z,6.60
2022-11-29T00:37:26.017Z,6.58
2022-11-29T00:37:36.002Z,6.60
2022-11-29T00:37:45.959Z,6.58
2022-11-29T00:37:56.022Z,6.58
2022-11-29T00:38:05.997Z,6.58
2022-11-29T00:38:15.979Z,6.60
2022-11-29T00:38:26.018Z,6.60
2022-11-29T00:38:35.983Z,6.60
2022-11-29T00:38:45.973Z,6.58
2022-11-29T00:38:56.034Z,6.60
2022-11-29T00:39:06.039Z,6.58
2022-11-29T00:39:16.056Z,6.58
2022-11-29T00:39:26.008Z,6.57
2022-11-29T00:39:36.009Z,6.58
2022-11-29T00:39:46.094Z,6.57
2022-11-29T00:39:55.954Z,6.57
2022-11-29T00:40:05.996Z,6.57
2022-11-29T00:40:16.071Z,6.57
2022-11-29T00:40:26.053Z,6.58
2022-11-29T00:40:35.993Z,6.58
2022-11-29T00:40:45.991Z,6.58
2022-11-29T00:40:56.015Z,6.58
2022-11-29T00:41:05.949Z,6.58
2022-11-29T00:41:16.494Z,6.58
2022-11-29T00:41:26.021Z,6.55
2022-11-29T00:41:36.040Z,6.58
2022-11-29T00:41:46.069Z,6.55
2022-11-29T00:41:56.053Z,6.55
2022-11-29T00:42:06.018Z,6.55
2022-11-29T00:42:16.002Z,6.57
2022-11-29T00:42:25.981Z,6.57
2022-11-29T00:42:36.069Z,6.57
2022-11-29T00:42:46.031Z,6.57
2022-11-29T00:42:56.017Z,6.55
2022-11-29T00:43:05.981Z,6.57
2022-11-29T00:43:16.006Z,6.57
2022-11-29T00:43:25.978Z,6.55
2022-11-29T00:43:36.000Z,6.57
2022-11-29T00:43:45.988Z,6.57
2022-11-29T00:44:29.904Z,6.54
2022-11-29T00:44:30.099Z,6.54
2022-11-29T00:44:30.308Z,6.54
2022-11-29T00:44:30.522Z,6.54
2022-11-29T00:44:35.972Z,6.55
2022-11-29T00:44:46.146Z,6.57
2022-11-29T00:44:56.009Z,6.57
2022-11-29T00:45:06.011Z,6.55
2022-11-29T00:45:16.058Z,6.57
2022-11-29T00:45:25.965Z,6.57
2022-11-29T00:45:36.031Z,6.55
2022-11-29T00:45:46.022Z,6.57
2022-11-29T00:45:56.130Z,6.57
2022-11-29T00:46:06.093Z,6.57
2022-11-29T00:46:15.995Z,6.57
2022-11-29T00:46:26.109Z,6.55
2022-11-29T00:46:36.018Z,6.55
2022-11-29T00:46:46.038Z,6.55
2022-11-29T00:46:55.986Z,6.57
2022-11-29T00:47:05.990Z,6.57
2022-11-29T00:47:16.045Z,6.55
2022-11-29T00:47:26.047Z,6.57
2022-11-29T00:47:35.998Z,6.57
2022-11-29T00:47:45.963Z,6.57
2022-11-29T00:47:55.979Z,6.57
2022-11-29T00:48:06.005Z,6.57
2022-11-29T00:48:16.022Z,6.57
2022-11-29T00:48:25.967Z,6.57
2022-11-29T00:48:36.089Z,6.57
2022-11-29T00:48:46.077Z,6.57
2022-11-29T00:48:56.091Z,6.57
2022-11-29T00:49:06.021Z,6.58
2022-11-29T00:49:16.038Z,6.58
2022-11-29T00:49:26.042Z,6.57
2022-11-29T00:49:36.006Z,6.58
2022-11-29T00:49:46.051Z,6.57
2022-11-29T00:49:56.035Z,6.57
2022-11-29T00:50:06.028Z,6.58
2022-11-29T00:50:16.029Z,6.55
2022-11-29T00:50:26.075Z,6.58
2022-11-29T00:50:36.028Z,6.57
2022-11-29T00:50:46.089Z,6.57
2022-11-29T00:50:56.043Z,6.57
2022-11-29T00:51:06.064Z,6.58
2022-11-29T00:51:16.037Z,6.58
2022-11-29T00:51:26.067Z,6.58
2022-11-29T00:51:36.005Z,6.58
2022-11-29T00:51:46.005Z,6.58
2022-11-29T00:51:56.016Z,6.58
2022-11-29T00:52:06.043Z,6.58
2022-11-29T00:52:16.019Z,6.60
2022-11-29T00:52:25.986Z,6.58
2022-11-29T00:52:36.041Z,6.57
2022-11-29T00:52:46.051Z,6.60
2022-11-29T00:52:55.986Z,6.60
2022-11-29T00:53:05.972Z,6.60
2022-11-29T00:53:15.956Z,6.60
2022-11-29T00:53:25.983Z,6.60
2022-11-29T00:53:35.978Z,6.61
2022-11-29T00:53:46.077Z,6.60
2022-11-29T00:53:55.998Z,6.61
2022-11-29T00:54:06.070Z,6.60
2022-11-29T00:54:16.083Z,6.61
2022-11-29T00:54:26.047Z,6.60
2022-11-29T00:54:36.076Z,6.60
2022-11-29T00:54:46.257Z,6.61
2022-11-29T00:54:56.028Z,6.58
2022-11-29T00:55:06.096Z,6.61
2022-11-29T00:55:16.021Z,6.60
2022-11-29T00:55:26.086Z,6.61
2022-11-29T00:55:36.085Z,6.57
2022-11-29T00:55:45.992Z,6.60
2022-11-29T00:55:56.014Z,6.60
2022-11-29T00:56:05.985Z,6.61
2022-11-29T00:56:16.092Z,6.58
2022-11-29T00:56:26.000Z,6.60
2022-11-29T00:56:35.958Z,6.61
2022-11-29T00:56:46.068Z,6.61
2022-11-29T00:56:55.986Z,6.58
2022-11-29T00:57:05.957Z,6.61
2022-11-29T00:57:15.968Z,6.60
2022-11-29T00:57:25.955Z,6.60
2022-11-29T00:57:36.031Z,6.60
2022-11-29T00:57:46.077Z,6.60
2022-11-29T00:57:55.974Z,6.61
2022-11-29T00:58:06.077Z,6.60
2022-11-29T00:58:16.077Z,6.60
2022-11-29T00:58:26.056Z,6.60
2022-11-29T00:58:36.001Z,6.60
2022-11-29T00:58:46.024Z,6.60
2022-11-29T00:58:55.994Z,6.61
2022-11-29T00:59:06.055Z,6.60
2022-11-29T00:59:16.065Z,6.61
2022-11-29T00:59:26.002Z,6.61
2022-11-29T00:59:36.082Z,6.61
2022-11-29T00:59:45.966Z,6.61
2022-11-29T00:59:56.022Z,6.61
2022-11-29T01:00:05.979Z,6.61
2022-11-29T01:00:16.029Z,6.60
2022-11-29T01:00:26.028Z,6.61
2022-11-29T01:00:36.016Z,6.63
2022-11-29T01:00:46.004Z,6.61
2022-11-29T01:00:56.045Z,6.63
2022-11-29T01:01:06.170Z,6.61
2022-11-29T01:01:16.033Z,6.64
2022-11-29T01:01:26.107Z,6.63
2022-11-29T01:01:36.056Z,6.63
2022-11-29T01:01:46.010Z,6.64
2022-11-29T01:01:56.269Z,6.64
2022-11-29T01:02:06.041Z,6.64
2022-11-29T01:02:16.076Z,6.63
2022-11-29T01:02:26.059Z,6.64
2022-11-29T01:02:36.114Z,6.64
2022-11-29T01:02:46.084Z,6.63
2022-11-29T01:02:56.031Z,6.64
2022-11-29T01:03:06.075Z,6.63
2022-11-29T01:03:15.974Z,6.63
2022-11-29T01:03:26.015Z,6.63
2022-11-29T01:03:35.984Z,6.63
2022-11-29T01:03:46.010Z,6.64
2022-11-29T01:03:56.015Z,6.61
2022-11-29T01:04:06.087Z,6.63
2022-11-29T01:04:16.061Z,6.61
2022-11-29T01:04:25.960Z,6.63
2022-11-29T01:04:36.017Z,6.61
2022-11-29T01:04:46.313Z,6.61
2022-11-29T01:04:55.995Z,6.61
2022-11-29T01:05:06.018Z,6.60
2022-11-29T01:05:16.088Z,6.60
2022-11-29T01:05:26.051Z,6.60
2022-11-29T01:05:36.015Z,6.60
2022-11-29T01:05:45.971Z,6.60
2022-11-29T01:05:55.981Z,6.60
2022-11-29T01:06:06.046Z,6.61
2022-11-29T01:06:16.018Z,6.61
2022-11-29T01:06:26.064Z,6.61
2022-11-29T01:06:36.048Z,6.60
2022-11-29T01:06:46.055Z,6.61
2022-11-29T01:06:55.977Z,6.60
2022-11-29T01:07:06.076Z,6.61
2022-11-29T01:07:16.152Z,6.61
2022-11-29T01:07:26.027Z,6.61
2022-11-29T01:07:36.052Z,6.61
2022-11-29T01:07:46.054Z,6.60
2022-11-29T01:07:56.007Z,6.60
2022-11-29T01:08:06.018Z,6.61
2022-11-29T01:08:15.989Z,6.61
2022-11-29T01:08:25.965Z,6.61
2022-11-29T01:08:35.986Z,6.61
2022-11-29T01:08:46.002Z,6.64
2022-11-29T01:08:55.980Z,6.60
2022-11-29T01:09:06.060Z,6.61
2022-11-29T01:09:16.030Z,6.61
2022-11-29T01:09:26.055Z,6.61
2022-11-29T01:09:36.081Z,6.61
2022-11-29T01:09:45.968Z,6.61
2022-11-29T01:09:55.958Z,6.61
2022-11-29T01:10:05.973Z,6.63
2022-11-29T01:10:15.998Z,6.63
2022-11-29T01:10:25.965Z,6.63
2022-11-29T01:10:35.959Z,6.61
2022-11-29T01:10:46.067Z,6.60
2022-11-29T01:10:56.044Z,6.63
2022-11-29T01:11:05.969Z,6.61
2022-11-29T01:11:15.969Z,6.63
2022-11-29T01:11:26.024Z,6.61
2022-11-29T01:11:36.040Z,6.64
2022-11-29T01:11:45.953Z,6.63
2022-11-29T01:11:56.080Z,6.63
2022-11-29T01:12:05.966Z,6.63
2022-11-29T01:12:16.005Z,6.63
2022-11-29T01:12:26.009Z,6.64
2022-11-29T01:12:36.024Z,6.64
2022-11-29T01:12:46.012Z,6.65
2022-11-29T01:12:56.059Z,6.65
2022-11-29T01:13:06.080Z,6.64
2022-11-29T01:13:16.060Z,6.64
2022-11-29T01:13:26.040Z,6.64
2022-11-29T01:13:36.111Z,6.64
2022-11-29T01:13:45.987Z,6.65
2022-11-29T01:13:56.072Z,6.65
2022-11-29T01:14:06.030Z,6.65
2022-11-29T01:14:15.970Z,6.65
2022-11-29T01:14:26.047Z,6.65
2022-11-29T01:14:36.043Z,6.68
2022-11-29T01:14:46.337Z,6.68
2022-11-29T01:14:55.962Z,6.68
2022-11-29T01:15:06.056Z,6.68
2022-11-29T01:15:15.990Z,6.65
2022-11-29T01:15:26.029Z,6.69
2022-11-29T01:15:36.023Z,6.68
2022-11-29T01:15:46.055Z,6.68
2022-11-29T01:15:55.984Z,6.69
2022-11-29T01:16:06.085Z,6.69
2022-11-29T01:16:16.221Z,6.71
2022-11-29T01:16:26.109Z,6.69
2022-11-29T01:16:36.096Z,6.71
2022-11-29T01:16:46.047Z,6.71
2022-11-29T01:16:56.043Z,6.69
2022-11-29T01:17:06.023Z,6.71
2022-11-29T01:17:16.000Z,6.72
2022-11-29T01:17:25.998Z,6.71
2022-11-29T01:17:35.980Z,6.72
2022-11-29T01:17:46.002Z,6.72
2022-11-29T01:17:56.106Z,6.71
2022-11-29T01:18:06.021Z,6.71
2022-11-29T01:18:16.061Z,6.71
2022-11-29T01:18:26.044Z,6.72
2022-11-29T01:18:36.011Z,6.72
2022-11-29T01:18:45.986Z,6.71
2022-11-29T01:18:55.955Z,6.71
2022-11-29T01:19:06.021Z,6.72
2022-11-29T01:19:15.982Z,6.72
2022-11-29T01:19:25.998Z,6.72
2022-11-29T01:19:35.978Z,6.75
2022-11-29T01:19:50.578Z,6.73
2022-11-29T01:19:55.986Z,6.72
2022-11-29T01:20:06.029Z,6.75
2022-11-29T01:20:16.054Z,6.73
2022-11-29T01:20:26.078Z,6.72
2022-11-29T01:20:35.975Z,6.75
2022-11-29T01:20:45.967Z,6.72
2022-11-29T01:20:55.972Z,6.72
2022-11-29T01:21:06.080Z,6.75
2022-11-29T01:21:16.115Z,6.75
2022-11-29T01:21:25.995Z,6.72
2022-11-29T01:21:36.089Z,6.73
2022-11-29T01:21:46.014Z,6.75
2022-11-29T01:21:55.958Z,6.73
2022-11-29T01:22:06.007Z,6.73
2022-11-29T01:22:16.042Z,6.75
2022-11-29T01:22:25.957Z,6.73
2022-11-29T01:22:35.956Z,6.75
2022-11-29T01:22:45.951Z,6.73
2022-11-29T01:22:56.070Z,6.73
2022-11-29T01:23:05.976Z,6.73
2022-11-29T01:23:16.072Z,6.75
2022-11-29T01:23:26.052Z,6.75
2022-11-29T01:23:36.050Z,6.73
2022-11-29T01:23:45.948Z,6.75
2022-11-29T01:23:56.056Z,6.73
2022-11-29T01:24:05.967Z,6.73
2022-11-29T01:24:16.006Z,6.75
2022-11-29T01:24:26.034Z,6.76
2022-11-29T01:24:36.088Z,6.73
2022-11-29T01:24:46.382Z,6.73
2022-11-29T01:24:56.014Z,6.73
2022-11-29T01:25:05.961Z,6.72
2022-11-29T01:25:16.010Z,6.75
2022-11-29T01:25:26.002Z,6.73
2022-11-29T01:25:36.004Z,6.75
2022-11-29T01:25:46.079Z,6.73
2022-11-29T01:25:55.978Z,6.76
2022-11-29T01:26:06.053Z,6.75
2022-11-29T01:26:16.046Z,6.73
2022-11-29T01:26:26.051Z,6.75
2022-11-29T01:26:35.998Z,6.75
2022-11-29T01:26:45.978Z,6.73
2022-11-29T01:26:56.032Z,6.73
2022-11-29T01:27:05.981Z,6.75
2022-11-29T01:27:16.000Z,6.73
2022-11-29T01:27:25.979Z,6.75
2022-11-29T01:27:36.014Z,6.75
2022-11-29T01:27:45.998Z,6.73
2022-11-29T01:27:56.038Z,6.72
2022-11-29T01:28:05.998Z,6.75
2022-11-29T01:28:16.060Z,6.72
2022-11-29T01:28:26.060Z,6.73
2022-11-29T01:28:36.074Z,6.73
2022-11-29T01:28:46.049Z,6.71
2022-11-29T01:28:55.978Z,6.73
2022-11-29T01:29:06.015Z,6.73
2022-11-29T01:29:15.987Z,6.73
2022-11-29T01:29:26.013Z,6.73
2022-11-29T01:29:36.062Z,6.72
2022-11-29T01:29:46.071Z,6.72
2022-11-29T01:29:56.002Z,6.72
2022-11-29T01:30:05.960Z,6.72
2022-11-29T01:30:15.970Z,6.72
2022-11-29T01:30:26.120Z,6.72
2022-11-29T01:30:36.069Z,6.72
2022-11-29T01:30:46.132Z,6.72
2022-11-29T01:30:56.089Z,6.73
2022-11-29T01:31:06.064Z,6.73
2022-11-29T01:31:16.076Z,6.72
2022-11-29T01:31:26.072Z,6.73
2022-11-29T01:31:36.088Z,6.73
2022-11-29T01:31:46.069Z,6.73
2022-11-29T01:31:56.011Z,6.72
2022-11-29T01:32:06.074Z,6.73
2022-11-29T01:32:15.973Z,6.73
2022-11-29T01:32:26.069Z,6.75
2022-11-29T01:32:36.009Z,6.75
2022-11-29T01:32:46.036Z,6.75
2022-11-29T01:32:56.052Z,6.75
2022-11-29T01:33:06.047Z,6.73
2022-11-29T01:33:15.985Z,6.75
2022-11-29T01:33:25.974Z,6.75
2022-11-29T01:33:35.985Z,6.76
2022-11-29T01:33:46.003Z,6.75
2022-11-29T01:33:56.071Z,6.76
2022-11-29T01:34:05.976Z,6.75
2022-11-29T01:34:16.006Z,6.76
2022-11-29T01:34:25.957Z,6.75
2022-11-29T01:34:35.964Z,6.76
2022-11-29T01:34:46.318Z,6.75
2022-11-29T01:34:56.079Z,6.76
2022-11-29T01:35:06.069Z,6.75
2022-11-29T01:35:16.065Z,6.78
2022-11-29T01:35:26.018Z,6.75
2022-11-29T01:35:35.974Z,6.75
2022-11-29T01:35:45.956Z,6.76
2022-11-29T01:35:55.973Z,6.75
2022-11-29T01:36:06.068Z,6.76
2022-11-29T01:36:16.061Z,6.75
2022-11-29T01:36:26.062Z,6.75
2022-11-29T01:36:35.994Z,6.75
2022-11-29T01:36:46.031Z,6.75
2022-11-29T01:36:55.986Z,6.73
2022-11-29T01:37:06.079Z,6.73
2022-11-29T01:37:16.091Z,6.73
2022-11-29T01:37:26.079Z,6.73
2022-11-29T01:37:36.084Z,6.73
2022-11-29T01:37:46.043Z,6.72
2022-11-29T01:37:56.042Z,6.73
2022-11-29T01:38:05.950Z,6.73
2022-11-29T01:38:16.049Z,6.73
2022-11-29T01:38:26.080Z,6.73
2022-11-29T01:38:36.030Z,6.72
2022-11-29T01:38:46.040Z,6.72
2022-11-29T01:38:56.054Z,6.72
2022-11-29T01:39:06.091Z,6.72
2022-11-29T01:39:16.012Z,6.73
2022-11-29T01:39:25.990Z,6.71
2022-11-29T01:39:36.079Z,6.72
2022-11-29T01:39:46.014Z,6.72
2022-11-29T01:39:55.968Z,6.72
2022-11-29T01:40:05.974Z,6.72
2022-11-29T01:40:16.052Z,6.72
2022-11-29T01:40:25.991Z,6.72
2022-11-29T01:40:36.019Z,6.73
2022-11-29T01:40:45.951Z,6.72
2022-11-29T01:40:56.061Z,6.72
2022-11-29T01:41:06.037Z,6.72
2022-11-29T01:41:15.975Z,6.72
2022-11-29T01:41:25.995Z,6.73
2022-11-29T01:41:36.072Z,6.72
2022-11-29T01:41:46.074Z,6.72
2022-11-29T01:41:55.949Z,6.71
2022-11-29T01:42:06.095Z,6.72
2022-11-29T01:42:16.031Z,6.71
2022-11-29T01:42:25.967Z,6.72
2022-11-29T01:42:36.086Z,6.72
2022-11-29T01:42:46.048Z,6.72
2022-11-29T01:42:56.015Z,6.72
2022-11-29T01:43:06.009Z,6.72
2022-11-29T01:43:16.062Z,6.72
2022-11-29T01:43:26.054Z,6.71
2022-11-29T01:43:35.955Z,6.73
2022-11-29T01:43:45.987Z,6.72
2022-11-29T01:43:55.984Z,6.72
2022-11-29T01:44:06.034Z,6.71
2022-11-29T01:44:16.040Z,6.71
2022-11-29T01:44:25.970Z,6.71
2022-11-29T01:44:36.028Z,6.71
2022-11-29T01:44:46.262Z,6.72
2022-11-29T01:44:56.013Z,6.71
2022-11-29T01:45:05.949Z,6.72
2022-11-29T01:45:16.062Z,6.72
2022-11-29T01:45:25.969Z,6.72
2022-11-29T01:45:36.036Z,6.71
2022-11-29T01:45:46.016Z,6.71
2022-11-29T01:45:56.095Z,6.72
2022-11-29T01:46:06.038Z,6.71
2022-11-29T01:46:16.013Z,6.71
2022-11-29T01:46:26.121Z,6.72
2022-11-29T01:46:35.961Z,6.71
2022-11-29T01:46:46.073Z,6.71
2022-11-29T01:46:56.077Z,6.71
2022-11-29T01:47:06.069Z,6.69
2022-11-29T01:47:16.093Z,6.71
2022-11-29T01:47:26.012Z,6.69
2022-11-29T01:47:35.963Z,6.69
2022-11-29T01:47:46.073Z,6.69
2022-11-29T01:47:55.985Z,6.68
2022-11-29T01:48:06.090Z,6.68
2022-11-29T01:48:16.065Z,6.68
2022-11-29T01:48:26.008Z,6.68
2022-11-29T01:48:35.955Z,6.68
2022-11-29T01:48:46.015Z,6.68
2022-11-29T01:48:56.050Z,6.68
2022-11-29T01:49:06.075Z,6.65
2022-11-29T01:49:16.044Z,6.68
2022-11-29T01:49:25.958Z,6.65
2022-11-29T01:49:36.026Z,6.65
2022-11-29T01:49:45.959Z,6.64
2022-11-29T01:49:55.980Z,6.64
2022-11-29T01:50:06.051Z,6.65
2022-11-29T01:50:16.098Z,6.65
2022-11-29T01:50:26.032Z,6.64
2022-11-29T01:50:35.967Z,6.64
2022-11-29T01:50:45.974Z,6.65
2022-11-29T01:50:56.055Z,6.64
2022-11-29T01:51:06.058Z,6.64
2022-11-29T01:51:16.013Z,6.64
2022-11-29T01:51:26.001Z,6.64
2022-11-29T01:51:36.012Z,6.63
2022-11-29T01:51:45.977Z,6.64
2022-11-29T01:51:55.952Z,6.63
2022-11-29T01:52:06.081Z,6.64
2022-11-29T01:52:16.060Z,6.63
2022-11-29T01:52:26.067Z,6.64
2022-11-29T01:52:36.019Z,6.64
2022-11-29T01:52:46.038Z,6.64
2022-11-29T01:52:55.989Z,6.63
2022-11-29T01:53:06.085Z,6.63
2022-11-29T01:53:15.965Z,6.63
2022-11-29T01:53:26.004Z,6.60
2022-11-29T01:53:36.079Z,6.63
2022-11-29T01:53:45.990Z,6.63
2022-11-29T01:53:55.962Z,6.63
2022-11-29T01:54:05.972Z,6.61
2022-11-29T01:54:15.951Z,6.61
2022-11-29T01:54:26.071Z,6.61
2022-11-29T01:54:36.037Z,6.61
2022-11-29T01:54:46.267Z,6.60
2022-11-29T01:54:55.969Z,6.60
2022-11-29T01:55:06.037Z,6.58
2022-11-29T01:55:16.025Z,6.58
2022-11-29T01:55:26.064Z,6.58
2022-11-29T01:55:36.059Z,6.58
2022-11-29T01:55:46.148Z,6.58
2022-11-29T01:55:56.063Z,6.58
2022-11-29T01:56:06.112Z,6.58
2022-11-29T01:56:16.083Z,6.57
2022-11-29T01:56:26.045Z,6.57
2022-11-29T01:56:35.981Z,6.55
2022-11-29T01:56:46.037Z,6.57
2022-11-29T01:56:56.003Z,6.55
2022-11-29T01:57:06.056Z,6.57
2022-11-29T01:57:15.964Z,6.57
2022-11-29T01:57:25.968Z,6.57
2022-11-29T01:57:36.000Z,6.57
2022-11-29T01:57:45.984Z,6.57
2022-11-29T01:57:56.063Z,6.57
2022-11-29T01:58:05.976Z,6.60
2022-11-29T01:58:16.048Z,6.55
2022-11-29T01:58:25.960Z,6.55
2022-11-29T01:58:36.059Z,6.55
2022-11-29T01:58:45.953Z,6.55
2022-11-29T01:58:55.963Z,6.54
2022-11-29T01:59:06.017Z,6.55
2022-11-29T01:59:16.079Z,6.54
2022-11-29T01:59:25.998Z,6.55
2022-11-29T01:59:35.965Z,6.54
2022-11-29T01:59:45.963Z,6.55
2022-11-29T01:59:56.021Z,6.54
2022-11-29T02:00:06.060Z,6.53
2022-11-29T02:00:16.088Z,6.53
2022-11-29T02:00:26.026Z,6.53
2022-11-29T02:00:36.024Z,6.53
2022-11-29T02:00:45.964Z,6.53
2022-11-29T02:00:56.103Z,6.51
2022-11-29T02:01:05.999Z,6.51
2022-11-29T02:01:16.043Z,6.51
2022-11-29T02:01:26.140Z,6.51
2022-11-29T02:01:36.084Z,6.51
2022-11-29T02:01:46.158Z,6.50
2022-11-29T02:01:56.015Z,6.51
2022-11-29T02:02:06.160Z,6.50
2022-11-29T02:02:16.112Z,6.50
2022-11-29T02:02:26.008Z,6.51
2022-11-29T02:02:36.211Z,6.51
2022-11-29T02:02:46.192Z,6.51
2022-11-29T02:02:56.008Z,6.50
2022-11-29T02:03:05.949Z,6.50
2022-11-29T02:03:16.032Z,6.50
2022-11-29T02:03:26.077Z,6.50
2022-11-29T02:03:36.001Z,6.50
2022-11-29T02:03:46.054Z,6.50
2022-11-29T02:03:56.056Z,6.51
2022-11-29T02:04:06.011Z,6.50
2022-11-29T02:04:16.009Z,6.50
2022-11-29T02:04:25.984Z,6.50
2022-11-29T02:04:36.033Z,6.50
2022-11-29T02:04:46.197Z,6.48
2022-11-29T02:04:56.011Z,6.50
2022-11-29T02:05:05.960Z,6.48
2022-11-29T02:05:15.956Z,6.46
2022-11-29T02:05:25.960Z,6.48
2022-11-29T02:05:36.030Z,6.46
2022-11-29T02:05:45.975Z,6.48
2022-11-29T02:05:56.024Z,6.46
2022-11-29T02:06:05.964Z,6.48
2022-11-29T02:06:15.984Z,6.48
2022-11-29T02:06:25.976Z,6.46
2022-11-29T02:06:35.960Z,6.46
2022-11-29T02:06:45.990Z,6.48
2022-11-29T02:06:56.032Z,6.46
2022-11-29T02:07:06.076Z,6.46
2022-11-29T02:07:15.963Z,6.46
2022-11-29T02:07:26.025Z,6.46
2022-11-29T02:07:36.061Z,6.48
2022-11-29T02:07:46.152Z,6.46
2022-11-29T02:07:56.082Z,6.48
2022-11-29T02:08:05.951Z,6.48
2022-11-29T02:08:15.951Z,6.46
2022-11-29T02:08:25.992Z,6.46
2022-11-29T02:08:35.995Z,6.46
2022-11-29T02:08:46.044Z,6.46
2022-11-29T02:08:56.036Z,6.45
2022-11-29T02:09:05.981Z,6.46
2022-11-29T02:09:16.033Z,6.46
2022-11-29T02:09:26.016Z,6.46
2022-11-29T02:09:36.080Z,6.45
2022-11-29T02:09:45.973Z,6.46
2022-11-29T02:09:55.985Z,6.45
2022-11-29T02:10:05.972Z,6.46
2022-11-29T02:10:15.975Z,6.45
2022-11-29T02:10:26.073Z,6.43
2022-11-29T02:10:35.956Z,6.43
2022-11-29T02:10:45.961Z,6.43
2022-11-29T02:10:56.044Z,6.42
2022-11-29T02:11:06.083Z,6.40
2022-11-29T02:11:15.968Z,6.40
2022-11-29T02:11:25.964Z,6.39
2022-11-29T02:11:36.098Z,6.40
2022-11-29T02:11:46.076Z,6.40
2022-11-29T02:11:56.082Z,6.42
2022-11-29T02:12:05.975Z,6.40
2022-11-29T02:12:16.051Z,6.42
2022-11-29T02:12:25.950Z,6.39
2022-11-29T02:12:36.041Z,6.40
2022-11-29T02:12:46.058Z,6.42
2022-11-29T02:12:56.349Z,6.40
2022-11-29T02:13:05.972Z,6.40